Time;durP1;ratioP1;P1;durP2;ratioP2;P2;SDS_P1;SDS_P2;PMS_P1;PMS_P2;Temp;Humidity;BMP_temperature;BMP_pressure;BME280_temperature;BME280_humidity;BME280_pressure;Samples;Min_cycle;Max_cycle;Signal;HPM_P1;HPM_P2
2022/10/20 00:01:34;;;;;;;42.65;8.32;;;11.30;99.90;;;;;;5000794;28;20046;-95
2022/10/20 00:04:01;;;;;;;46.88;8.20;;;11.30;99.90;;;;;;5003925;28;20029;-94
2022/10/20 00:06:29;;;;;;;38.40;8.30;;;11.30;99.90;;;;;;5004362;28;20026;-96
2022/10/20 00:08:57;;;;;;;32.05;7.55;;;11.30;99.90;;;;;;5010077;28;20515;-95
2022/10/20 00:11:25;;;;;;;36.17;9.02;;;11.30;99.90;;;;;;4990108;28;20061;-94
2022/10/20 00:13:53;;;;;;;33.58;7.18;;;11.30;99.90;;;;;;5006964;28;20061;-96
2022/10/20 00:16:20;;;;;;;35.20;7.72;;;11.30;99.90;;;;;;5006894;28;20269;-96
2022/10/20 00:18:46;;;;;;;36.75;7.80;;;11.30;99.90;;;;;;5014132;28;20447;-94
2022/10/20 00:21:17;;;;;;;43.85;9.20;;;11.30;99.90;;;;;;5007976;28;20029;-95
2022/10/20 00:23:42;;;;;;;36.30;8.02;;;11.30;99.90;;;;;;5006923;28;20026;-94
2022/10/20 00:26:12;;;;;;;35.65;8.55;;;11.30;99.90;;;;;;5022541;28;20045;-96
2022/10/20 00:28:38;;;;;;;33.25;7.43;;;11.30;99.90;;;;;;5007502;28;20045;-96
2022/10/20 00:31:05;;;;;;;49.90;8.70;;;11.20;99.90;;;;;;5027213;28;20217;-96
2022/10/20 00:33:31;;;;;;;35.38;7.93;;;11.20;99.90;;;;;;4993397;28;20037;-96
2022/10/20 00:35:59;;;;;;;36.30;8.77;;;11.20;99.90;;;;;;5002246;28;20484;-95
2022/10/20 00:38:25;;;;;;;33.40;8.30;;;11.20;99.90;;;;;;5004701;28;20049;-95
2022/10/20 00:40:50;;;;;;;31.38;8.73;;;11.20;99.90;;;;;;5004808;28;20048;-94
2022/10/20 00:43:17;;;;;;;37.95;9.02;;;11.20;99.90;;;;;;5004542;28;20022;-95
2022/10/20 00:45:50;;;;;;;32.65;9.68;;;11.20;99.90;;;;;;5006874;28;20108;-95
2022/10/20 00:48:19;;;;;;;33.13;9.52;;;11.20;99.90;;;;;;5004721;28;20030;-94
2022/10/20 00:50:51;;;;;;;29.00;9.45;;;11.10;99.90;;;;;;5012830;28;20061;-95
2022/10/20 00:53:18;;;;;;;32.65;8.50;;;11.20;99.90;;;;;;5013451;28;20041;-95
2022/10/20 00:55:47;;;;;;;29.30;7.72;;;11.20;99.90;;;;;;5014641;28;20021;-94
2022/10/20 00:58:17;;;;;;;34.08;9.60;;;11.20;99.90;;;;;;5016687;28;20032;-94
2022/10/20 01:00:44;;;;;;;32.00;9.88;;;11.20;99.90;;;;;;5017657;28;20022;-94
2022/10/20 01:03:22;;;;;;;31.40;8.50;;;11.20;99.90;;;;;;5014701;28;20033;-94
2022/10/20 01:05:48;;;;;;;27.75;8.55;;;11.20;99.90;;;;;;5020185;28;20029;-94
2022/10/20 01:08:17;;;;;;;33.97;9.45;;;11.20;99.90;;;;;;5021172;28;20030;-93
2022/10/20 01:11:21;;;;;;;30.42;9.38;;;11.20;99.90;;;;;;5021974;28;20030;-92
2022/10/20 01:14:33;;;;;;;19.15;8.88;;;11.20;99.90;;;;;;4982681;28;20054;-95
2022/10/20 01:17:37;;;;;;;27.77;10.05;;;11.20;99.90;;;;;;4922571;29;20024;-92
2022/10/20 01:20:22;;;;;;;31.50;10.93;;;11.20;99.90;;;;;;4935572;29;20055;-96
2022/10/20 01:22:48;;;;;;;32.25;9.88;;;11.20;99.90;;;;;;4909376;29;20024;-95
2022/10/20 01:25:28;;;;;;;30.55;8.85;;;11.20;99.90;;;;;;4907779;29;20032;-95
2022/10/20 01:28:14;;;;;;;29.27;9.43;;;11.20;99.90;;;;;;4923578;29;20044;-95
2022/10/20 01:30:45;;;;;;;39.20;11.27;;;11.20;99.90;;;;;;4912436;29;20036;-93
2022/10/20 01:33:26;;;;;;;39.53;11.15;;;11.20;99.90;;;;;;4912294;29;20028;-94
2022/10/20 01:35:55;;;;;;;32.17;9.90;;;11.20;99.90;;;;;;4925776;29;20043;-96
2022/10/20 01:38:37;;;;;;;35.65;11.55;;;11.20;99.90;;;;;;4897436;29;20533;-94
2022/10/20 01:41:20;;;;;;;34.95;10.68;;;11.20;99.90;;;;;;4890629;29;20627;-94
2022/10/20 01:43:47;;;;;;;25.95;10.32;;;11.20;99.90;;;;;;4886340;29;20049;-94
2022/10/20 01:46:15;;;;;;;39.75;12.23;;;11.20;99.90;;;;;;4891679;29;20079;-94
2022/10/20 01:48:42;;;;;;;40.83;11.75;;;11.20;99.90;;;;;;4889457;29;20027;-96
2022/10/20 01:51:09;;;;;;;33.17;11.68;;;11.20;99.90;;;;;;4954609;28;20058;-95
2022/10/20 01:53:38;;;;;;;37.50;11.60;;;11.20;99.90;;;;;;4983182;28;20039;-94
2022/10/20 01:56:05;;;;;;;34.80;13.13;;;11.20;99.90;;;;;;4985829;28;20069;-94
2022/10/20 01:58:59;;;;;;;31.83;12.77;;;11.20;99.90;;;;;;4983778;28;20022;-94
2022/10/20 02:02:02;;;;;;;36.75;12.73;;;11.20;99.90;;;;;;4986198;28;20023;-94
2022/10/20 02:04:48;;;;;;;45.80;14.20;;;11.20;99.90;;;;;;4958127;28;20030;-94
2022/10/20 02:07:27;;;;;;;47.33;13.32;;;11.20;99.90;;;;;;4985063;28;20030;-93
2022/10/20 02:10:17;;;;;;;30.73;12.18;;;11.20;99.90;;;;;;4974935;28;20034;-93
2022/10/20 02:12:47;;;;;;;27.83;8.70;;;11.20;99.90;;;;;;4963453;28;20081;-94
2022/10/20 02:15:18;;;;;;;28.50;12.18;;;11.30;99.90;;;;;;4964004;28;20062;-94
2022/10/20 02:17:45;;;;;;;36.97;13.02;;;11.30;99.90;;;;;;4974479;28;20089;-94
2022/10/20 02:20:11;;;;;;;30.15;11.18;;;11.30;99.90;;;;;;4980475;28;20037;-92
2022/10/20 02:22:39;;;;;;;39.70;13.23;;;11.30;99.90;;;;;;4974353;28;20035;-93
2022/10/20 02:25:12;;;;;;;28.48;8.80;;;11.30;99.90;;;;;;4978267;28;20030;-94
2022/10/20 02:27:42;;;;;;;38.63;13.18;;;11.40;99.90;;;;;;4980710;28;20050;-92
2022/10/20 02:30:11;;;;;;;26.80;11.23;;;11.30;99.90;;;;;;4979372;28;20121;-91
2022/10/20 02:32:40;;;;;;;22.88;9.85;;;11.40;99.90;;;;;;4977066;28;20051;-95
2022/10/20 02:35:13;;;;;;;35.90;11.75;;;11.40;99.90;;;;;;4958807;28;20023;-95
2022/10/20 02:37:39;;;;;;;34.28;11.95;;;11.40;99.90;;;;;;4969880;28;20045;-95
2022/10/20 02:40:05;;;;;;;32.53;11.82;;;11.30;99.90;;;;;;4983745;28;20109;-94
2022/10/20 02:42:31;;;;;;;37.50;13.15;;;11.30;99.90;;;;;;5006292;28;20038;-94
2022/10/20 02:44:57;;;;;;;36.50;13.23;;;11.30;99.90;;;;;;4991026;28;20198;-96
2022/10/20 02:47:22;;;;;;;35.92;13.88;;;11.30;99.90;;;;;;4989156;28;20041;-95
2022/10/20 02:49:48;;;;;;;33.28;12.52;;;11.30;99.90;;;;;;5001224;28;20022;-95
2022/10/20 02:52:14;;;;;;;34.38;13.02;;;11.40;99.90;;;;;;5001332;28;20041;-94
2022/10/20 02:54:40;;;;;;;31.65;12.25;;;11.40;99.90;;;;;;4989552;28;20022;-94
2022/10/20 02:57:05;;;;;;;31.58;11.93;;;11.40;99.90;;;;;;4998854;28;20486;-94
2022/10/20 02:59:32;;;;;;;29.52;12.73;;;11.40;99.90;;;;;;4998844;28;20117;-94
2022/10/20 03:02:00;;;;;;;39.00;13.98;;;11.30;99.90;;;;;;5000836;28;20033;-95
2022/10/20 03:04:26;;;;;;;33.05;11.43;;;11.40;99.90;;;;;;4993604;28;20060;-93
2022/10/20 03:06:52;;;;;;;28.35;14.07;;;11.40;99.90;;;;;;5007214;28;20046;-95
2022/10/20 03:09:17;;;;;;;33.50;12.73;;;11.40;99.90;;;;;;4997742;28;20065;-96
2022/10/20 03:11:43;;;;;;;35.00;14.07;;;11.40;99.90;;;;;;5002631;28;20038;-96
2022/10/20 03:14:10;;;;;;;42.88;15.77;;;11.40;99.90;;;;;;5003976;28;20030;-94
2022/10/20 03:16:35;;;;;;;36.80;14.60;;;11.40;99.90;;;;;;4983527;28;20030;-95
2022/10/20 03:19:01;;;;;;;33.72;14.65;;;11.40;99.90;;;;;;4997322;28;20034;-94
2022/10/20 03:21:27;;;;;;;32.80;14.48;;;11.40;99.90;;;;;;4998808;28;20026;-95
2022/10/20 03:23:54;;;;;;;34.50;13.70;;;11.40;99.90;;;;;;5014210;28;20045;-95
2022/10/20 03:26:19;;;;;;;29.80;11.02;;;11.40;99.90;;;;;;5001729;28;20022;-94
2022/10/20 03:28:45;;;;;;;27.50;12.30;;;11.50;99.90;;;;;;4999194;28;20033;-95
2022/10/20 03:31:11;;;;;;;35.78;14.23;;;11.40;99.90;;;;;;5015391;28;20135;-95
2022/10/20 03:33:37;;;;;;;32.83;13.15;;;11.50;99.90;;;;;;4996453;28;20041;-95
2022/10/20 03:36:03;;;;;;;36.78;15.48;;;11.40;99.90;;;;;;4996440;28;20117;-95
2022/10/20 03:38:28;;;;;;;38.95;15.35;;;11.40;99.90;;;;;;4997093;28;20046;-94
2022/10/20 03:40:54;;;;;;;24.35;11.93;;;11.50;99.90;;;;;;4998795;28;20030;-94
2022/10/20 03:43:20;;;;;;;37.22;14.38;;;11.50;99.90;;;;;;5014374;28;20030;-96
2022/10/20 03:45:45;;;;;;;39.15;15.43;;;11.50;99.90;;;;;;4988647;28;20049;-96
2022/10/20 03:48:11;;;;;;;37.80;15.43;;;11.50;99.90;;;;;;4978948;28;20018;-94
2022/10/20 03:50:39;;;;;;;30.40;13.52;;;11.50;99.90;;;;;;4978706;28;20053;-94
2022/10/20 03:53:05;;;;;;;26.08;11.20;;;11.50;99.90;;;;;;4979176;28;20030;-94
2022/10/20 03:55:30;;;;;;;32.33;12.98;;;11.50;99.90;;;;;;4979564;28;20022;-93
2022/10/20 03:57:56;;;;;;;31.50;12.82;;;11.50;99.90;;;;;;4982631;28;20460;-94
2022/10/20 04:00:22;;;;;;;29.10;13.13;;;11.50;99.90;;;;;;4981867;28;20054;-93
2022/10/20 04:02:48;;;;;;;33.33;13.80;;;11.50;99.90;;;;;;4981677;28;20034;-94
2022/10/20 04:05:17;;;;;;;32.03;13.77;;;11.50;99.90;;;;;;4982374;28;20037;-93
2022/10/20 04:07:43;;;;;;;33.70;14.60;;;11.50;99.90;;;;;;4985781;28;20034;-93
2022/10/20 04:10:10;;;;;;;32.40;12.65;;;11.50;99.90;;;;;;4985181;28;20034;-94
2022/10/20 04:12:36;;;;;;;28.75;13.30;;;11.50;99.90;;;;;;4983999;28;20042;-95
2022/10/20 04:15:04;;;;;;;20.50;9.75;;;11.50;99.90;;;;;;4985133;28;20044;-93
2022/10/20 04:17:30;;;;;;;32.00;14.65;;;11.50;99.90;;;;;;5004477;28;20101;-94
2022/10/20 04:19:55;;;;;;;32.85;13.75;;;11.50;99.90;;;;;;5002357;28;20053;-93
2022/10/20 04:22:21;;;;;;;33.83;14.40;;;11.50;99.90;;;;;;5000993;28;20033;-94
2022/10/20 04:24:47;;;;;;;23.90;10.63;;;11.50;99.90;;;;;;4999818;28;20479;-94
2022/10/20 04:27:12;;;;;;;30.60;12.15;;;11.50;99.90;;;;;;5000176;28;20036;-93
2022/10/20 04:29:38;;;;;;;28.90;14.10;;;11.50;99.90;;;;;;4999960;28;20506;-94
2022/10/20 04:32:04;;;;;;;32.38;12.90;;;11.50;99.90;;;;;;4999045;28;20614;-95
2022/10/20 04:34:29;;;;;;;32.00;14.30;;;11.50;99.90;;;;;;5000447;28;20052;-94
2022/10/20 04:36:56;;;;;;;31.10;13.93;;;11.50;99.90;;;;;;5000062;28;20026;-93
2022/10/20 04:39:21;;;;;;;34.58;14.30;;;11.50;99.90;;;;;;4981303;28;20451;-96
2022/10/20 04:41:47;;;;;;;30.58;13.18;;;11.50;99.90;;;;;;4981702;28;20461;-95
2022/10/20 04:44:13;;;;;;;26.10;12.60;;;11.50;99.90;;;;;;4982617;28;20451;-96
2022/10/20 04:46:38;;;;;;;29.83;13.13;;;11.50;99.90;;;;;;4981039;28;20117;-94
2022/10/20 04:49:04;;;;;;;27.98;12.55;;;11.50;99.90;;;;;;4983028;28;20050;-95
2022/10/20 04:51:30;;;;;;;20.88;10.80;;;11.50;99.90;;;;;;4997462;28;20058;-95
2022/10/20 04:53:56;;;;;;;26.92;12.35;;;11.50;99.90;;;;;;4993044;28;20346;-95
2022/10/20 04:56:22;;;;;;;29.75;12.65;;;11.60;99.90;;;;;;4985495;28;20704;-96
2022/10/20 04:58:52;;;;;;;23.45;12.32;;;11.50;99.90;;;;;;4992333;28;20034;-94
2022/10/20 05:01:20;;;;;;;;;;;11.60;99.90;;;;;;4999824;28;20045;-94
2022/10/20 05:03:46;;;;;;;27.52;11.38;;;11.50;99.90;;;;;;5001311;28;19917;-94
2022/10/20 05:06:24;;;;;;;24.73;12.45;;;11.50;99.90;;;;;;4985762;28;20105;-94
2022/10/20 05:08:53;;;;;;;24.50;10.65;;;11.50;99.90;;;;;;4999332;28;20029;-94
2022/10/20 05:11:21;;;;;;;22.42;11.73;;;11.50;99.90;;;;;;4997716;28;20014;-95
2022/10/20 05:13:47;;;;;;;26.75;13.10;;;11.50;99.90;;;;;;4995937;28;20089;-96
2022/10/20 05:16:13;;;;;;;30.35;13.02;;;11.50;99.90;;;;;;4995556;28;20026;-95
2022/10/20 05:18:39;;;;;;;31.02;12.73;;;11.50;99.90;;;;;;4992883;28;20040;-96
2022/10/20 05:21:14;;;;;;;28.42;12.55;;;11.50;99.90;;;;;;4991189;28;20062;-94
2022/10/20 05:23:42;;;;;;;25.48;12.20;;;11.50;99.90;;;;;;4995693;28;20014;-94
2022/10/20 05:26:14;;;;;;;24.50;11.27;;;11.50;99.90;;;;;;4989784;28;20022;-95
2022/10/20 05:28:43;;;;;;;23.23;11.68;;;11.50;99.90;;;;;;4989874;28;20039;-96
2022/10/20 05:31:09;;;;;;;23.77;10.15;;;11.50;99.90;;;;;;4992860;28;20030;-95
2022/10/20 05:33:35;;;;;;;17.33;9.27;;;11.50;99.90;;;;;;4996849;28;20038;-95
2022/10/20 05:36:12;;;;;;;22.27;11.50;;;11.50;99.90;;;;;;4997692;28;20026;-95
2022/10/20 05:38:39;;;;;;;21.85;12.02;;;11.50;99.90;;;;;;5008560;28;20088;-95
2022/10/20 05:41:16;;;;;;;23.50;11.77;;;11.50;99.90;;;;;;5015170;28;20056;-96
2022/10/20 05:43:47;;;;;;;22.38;11.43;;;11.50;99.90;;;;;;5015672;28;20050;-95
2022/10/20 05:46:14;;;;;;;25.65;12.45;;;11.60;99.90;;;;;;5016204;28;20090;-91
2022/10/20 05:48:39;;;;;;;25.85;13.40;;;11.50;99.90;;;;;;4998528;28;20483;-94
2022/10/20 05:51:17;;;;;;;25.52;11.82;;;11.50;99.90;;;;;;5013197;28;20021;-94
2022/10/20 05:53:44;;;;;;;24.20;10.52;;;11.50;99.90;;;;;;5010138;28;20057;-96
2022/10/20 05:56:13;;;;;;;21.88;10.25;;;11.50;99.90;;;;;;5005446;28;20059;-94
2022/10/20 05:58:39;;;;;;;16.48;9.23;;;11.50;99.90;;;;;;5001446;28;20029;-94
2022/10/20 06:01:10;;;;;;;18.95;10.35;;;11.50;99.90;;;;;;5004211;28;20129;-96
2022/10/20 06:03:36;;;;;;;19.73;8.82;;;11.50;99.90;;;;;;4986755;28;20100;-96
2022/10/20 06:06:03;;;;;;;20.45;9.55;;;11.60;99.90;;;;;;5002135;28;20033;-95
2022/10/20 06:08:33;;;;;;;16.55;9.23;;;11.60;99.90;;;;;;4999193;28;20025;-95
2022/10/20 06:11:09;;;;;;;19.30;10.10;;;11.60;99.90;;;;;;5000578;28;20045;-94
2022/10/20 06:13:35;;;;;;;24.15;9.50;;;11.60;99.90;;;;;;4998261;28;20371;-95
2022/10/20 06:16:09;;;;;;;19.00;10.68;;;11.60;99.90;;;;;;5025673;28;20018;-95
2022/10/20 06:18:38;;;;;;;21.27;10.60;;;11.60;99.90;;;;;;4995107;28;20026;-94
2022/10/20 06:21:10;;;;;;;16.52;9.93;;;11.60;99.90;;;;;;4992149;28;20026;-93
2022/10/20 06:23:36;;;;;;;19.55;10.75;;;11.60;99.90;;;;;;4997291;28;20073;-95
2022/10/20 06:26:04;;;;;;;18.40;9.55;;;11.60;99.90;;;;;;4996139;28;20029;-94
2022/10/20 06:28:31;;;;;;;18.10;8.52;;;11.60;99.90;;;;;;4996522;28;20026;-96
2022/10/20 06:30:57;;;;;;;18.50;10.20;;;11.60;99.90;;;;;;4993319;28;20029;-93
2022/10/20 06:33:24;;;;;;;21.40;10.40;;;11.60;99.90;;;;;;5000379;28;20038;-96
2022/10/20 06:35:50;;;;;;;18.52;10.05;;;11.60;99.90;;;;;;4999694;28;20030;-95
2022/10/20 06:38:15;;;;;;;15.60;9.60;;;11.60;99.90;;;;;;5010473;28;20040;-93
2022/10/20 06:40:46;;;;;;;25.13;10.90;;;11.60;99.90;;;;;;5011553;28;20370;-95
2022/10/20 06:43:12;;;;;;;19.13;9.88;;;11.60;99.90;;;;;;5004048;28;20033;-93
2022/10/20 06:45:38;;;;;;;15.98;9.68;;;11.60;99.90;;;;;;4994975;28;20052;-93
2022/10/20 06:48:04;;;;;;;15.32;8.30;;;11.60;99.90;;;;;;4994851;28;20022;-94
2022/10/20 06:50:31;;;;;;;18.20;10.23;;;11.60;99.90;;;;;;5007824;28;20026;-93
2022/10/20 06:52:57;;;;;;;19.13;10.52;;;11.60;99.90;;;;;;5004887;28;20657;-95
2022/10/20 06:55:23;;;;;;;19.13;10.50;;;11.60;99.90;;;;;;4986983;28;20037;-95
2022/10/20 06:57:48;;;;;;;17.73;9.77;;;11.60;99.90;;;;;;4986693;28;20061;-96
2022/10/20 07:00:14;;;;;;;21.48;10.77;;;11.60;99.90;;;;;;4980259;28;20054;-96
2022/10/20 07:02:40;;;;;;;23.17;11.57;;;11.60;99.90;;;;;;4982001;28;20076;-95
2022/10/20 07:05:06;;;;;;;22.92;10.93;;;11.70;99.90;;;;;;4989224;28;20030;-95
2022/10/20 07:07:31;;;;;;;19.30;10.75;;;11.70;99.90;;;;;;5003489;28;20034;-95
2022/10/20 07:10:09;;;;;;;18.15;10.35;;;11.80;99.90;;;;;;5004343;28;20094;-93
2022/10/20 07:12:37;;;;;;;13.50;8.13;;;11.90;99.90;;;;;;4995357;28;20026;-95
2022/10/20 07:15:05;;;;;;;18.00;10.05;;;12.00;99.90;;;;;;5013008;28;20037;-94
2022/10/20 07:17:31;;;;;;;19.52;9.40;;;12.10;99.90;;;;;;5001950;28;20033;-94
2022/10/20 07:19:56;;;;;;;15.63;8.75;;;12.10;99.90;;;;;;5019602;28;20032;-92
2022/10/20 07:22:22;;;;;;;19.30;9.32;;;12.10;99.90;;;;;;5020207;28;20037;-94
2022/10/20 07:24:48;;;;;;;16.85;9.00;;;12.00;99.90;;;;;;5019653;28;20053;-93
2022/10/20 07:27:13;;;;;;;20.38;9.57;;;12.00;99.90;;;;;;5006099;28;20038;-94
2022/10/20 07:29:40;;;;;;;12.95;7.68;;;12.00;99.90;;;;;;4996334;28;20506;-95
2022/10/20 07:32:07;;;;;;;14.57;8.70;;;11.90;99.90;;;;;;4980736;28;20046;-94
2022/10/20 07:34:32;;;;;;;16.50;9.77;;;11.90;99.90;;;;;;4996244;28;20065;-95
2022/10/20 07:36:59;;;;;;;16.67;9.80;;;11.90;99.90;;;;;;4998779;28;20019;-93
2022/10/20 07:39:27;;;;;;;18.80;9.95;;;11.90;99.90;;;;;;5000442;28;20043;-93
2022/10/20 07:41:53;;;;;;;17.15;9.23;;;11.90;99.90;;;;;;5000696;28;20033;-94
2022/10/20 07:44:19;;;;;;;15.75;9.38;;;11.90;99.90;;;;;;5000199;28;20014;-94
2022/10/20 07:46:44;;;;;;;17.42;8.98;;;11.80;99.90;;;;;;4996772;28;20091;-95
2022/10/20 07:49:11;;;;;;;14.30;8.30;;;11.90;99.90;;;;;;5023392;28;20036;-94
2022/10/20 07:51:36;;;;;;;15.30;9.20;;;11.80;99.90;;;;;;5000244;28;20451;-94
2022/10/20 07:54:07;;;;;;;17.88;10.25;;;11.90;99.90;;;;;;4999805;28;20026;-95
2022/10/20 07:56:35;;;;;;;18.55;10.32;;;11.80;99.90;;;;;;4994270;28;20092;-95
2022/10/20 07:59:02;;;;;;;12.88;7.70;;;11.80;99.90;;;;;;4992901;28;20026;-95
2022/10/20 08:01:27;;;;;;;11.55;7.07;;;11.80;99.90;;;;;;5003393;28;20089;-94
2022/10/20 08:03:53;;;;;;;15.15;8.65;;;11.80;99.90;;;;;;4998789;28;20050;-94
2022/10/20 08:06:19;;;;;;;16.92;8.63;;;11.80;99.90;;;;;;4997007;28;20372;-94
2022/10/20 08:08:44;;;;;;;13.27;8.02;;;11.80;99.90;;;;;;4997626;28;20018;-96
2022/10/20 08:11:11;;;;;;;15.15;8.80;;;11.80;99.90;;;;;;5000797;28;20025;-94
2022/10/20 08:13:39;;;;;;;13.07;8.43;;;11.80;99.90;;;;;;5002424;28;20037;-92
2022/10/20 08:16:08;;;;;;;15.38;9.10;;;11.80;99.90;;;;;;5025763;28;20576;-94
2022/10/20 08:18:34;;;;;;;16.73;9.10;;;11.80;99.90;;;;;;5002982;28;20034;-94
2022/10/20 08:21:16;;;;;;;14.20;8.63;;;11.80;99.90;;;;;;5006979;28;20444;-93
2022/10/20 08:23:43;;;;;;;17.67;9.57;;;11.80;99.90;;;;;;5007734;28;20117;-94
2022/10/20 08:26:10;;;;;;;13.70;8.63;;;11.70;99.90;;;;;;5017366;28;20037;-93
2022/10/20 08:28:36;;;;;;;15.95;8.77;;;11.70;99.90;;;;;;5013016;28;20030;-93
2022/10/20 08:31:06;;;;;;;15.57;8.05;;;11.70;99.90;;;;;;5005214;28;20030;-94
2022/10/20 08:33:33;;;;;;;10.37;6.30;;;11.70;99.90;;;;;;4999780;28;20065;-95
2022/10/20 08:36:07;;;;;;;17.35;8.32;;;11.70;99.90;;;;;;4999980;28;20272;-94
2022/10/20 08:38:34;;;;;;;14.07;8.20;;;11.70;99.90;;;;;;5015142;28;20065;-93
2022/10/20 08:41:01;;;;;;;16.17;9.00;;;11.70;99.90;;;;;;4998330;28;20039;-94
2022/10/20 08:43:29;;;;;;;16.73;8.70;;;11.70;99.90;;;;;;5000381;28;20026;-93
2022/10/20 08:45:55;;;;;;;19.50;9.90;;;11.70;99.90;;;;;;5003597;28;20034;-93
2022/10/20 08:48:24;;;;;;;22.58;10.93;;;11.70;99.90;;;;;;5003418;28;20022;-93
2022/10/20 08:50:52;;;;;;;21.40;9.88;;;11.70;99.90;;;;;;4998502;28;20400;-92
2022/10/20 08:53:21;;;;;;;19.42;10.15;;;11.70;99.90;;;;;;4979448;28;20179;-92
2022/10/20 08:55:47;;;;;;;18.83;9.95;;;11.70;99.90;;;;;;4978676;28;20030;-92
2022/10/20 08:58:16;;;;;;;22.38;10.15;;;11.70;99.90;;;;;;4982262;28;20030;-92
2022/10/20 09:00:42;;;;;;;15.50;8.70;;;11.70;99.90;;;;;;4980488;28;20026;-91
2022/10/20 09:03:26;;;;;;;18.23;9.63;;;11.70;99.90;;;;;;4984976;28;20028;-93
2022/10/20 09:06:11;;;;;;;13.88;8.02;;;11.70;99.90;;;;;;4999825;28;20032;-93
2022/10/20 09:08:38;;;;;;;15.30;8.25;;;11.70;99.90;;;;;;4999160;28;20479;-93
2022/10/20 09:11:07;;;;;;;18.48;9.32;;;11.70;99.90;;;;;;4997414;28;20025;-93
2022/10/20 09:13:36;;;;;;;16.13;8.48;;;11.70;99.90;;;;;;4999929;28;20125;-93
2022/10/20 09:16:07;;;;;;;15.32;8.55;;;11.70;99.90;;;;;;4999413;28;20037;-93
2022/10/20 09:18:33;;;;;;;13.77;7.88;;;11.70;99.90;;;;;;4999664;28;20049;-93
2022/10/20 09:21:04;;;;;;;14.43;8.00;;;11.70;99.90;;;;;;4999451;28;20041;-94
2022/10/20 09:23:42;;;;;;;10.05;5.95;;;11.80;99.90;;;;;;4999409;28;20022;-94
2022/10/20 09:26:17;;;;;;;12.85;7.55;;;11.70;99.90;;;;;;4999234;28;20030;-94
2022/10/20 09:28:47;;;;;;;14.25;7.18;;;11.80;99.90;;;;;;4999257;28;20068;-94
2022/10/20 09:31:35;;;;;;;15.20;8.02;;;11.80;99.90;;;;;;4999385;28;20121;-95
2022/10/20 09:34:03;;;;;;;14.18;7.85;;;11.80;99.90;;;;;;5003171;28;20480;-94
2022/10/20 09:36:33;;;;;;;12.98;6.57;;;11.80;99.90;;;;;;5012442;28;20022;-93
2022/10/20 09:38:59;;;;;;;9.88;6.88;;;11.80;99.90;;;;;;4999479;28;20097;-92
2022/10/20 09:41:30;;;;;;;11.07;6.25;;;11.80;99.90;;;;;;4998957;28;20116;-93
2022/10/20 09:43:58;;;;;;;;;;;11.80;99.90;;;;;;4999559;28;20113;-91
2022/10/20 09:46:47;;;;;;;10.30;6.15;;;11.80;99.90;;;;;;4998969;28;19944;-93
2022/10/20 09:49:32;;;;;;;13.60;7.28;;;11.80;99.90;;;;;;5015303;28;20026;-93
2022/10/20 09:52:00;;;;;;;16.52;7.03;;;11.80;99.90;;;;;;4998178;28;20030;-93
2022/10/20 09:54:26;;;;;;;10.73;6.70;;;11.90;99.90;;;;;;4998332;28;20494;-93
2022/10/20 09:57:02;;;;;;;19.33;7.30;;;11.90;99.90;;;;;;4998431;28;20490;-94
2022/10/20 09:59:43;;;;;;;13.80;7.70;;;11.90;99.90;;;;;;4998246;28;20025;-93
2022/10/20 10:02:14;;;;;;;;;;;11.90;99.90;;;;;;4998862;28;20037;-93
2022/10/20 10:04:47;;;;;;;16.13;8.10;;;11.90;99.90;;;;;;4997773;28;19913;-93
2022/10/20 10:07:25;;;;;;;16.02;8.88;;;11.80;99.90;;;;;;4998210;28;20080;-93
2022/10/20 10:09:55;;;;;;;14.05;7.60;;;11.90;99.90;;;;;;4999207;28;20029;-94
2022/10/20 10:12:23;;;;;;;10.95;6.85;;;11.90;99.90;;;;;;5006765;28;20030;-92
2022/10/20 10:14:52;;;;;;;19.13;10.02;;;11.90;99.90;;;;;;5018286;28;20109;-92
2022/10/20 10:17:31;;;;;;;8.95;6.03;;;11.80;99.90;;;;;;5004939;28;20034;-93
2022/10/20 10:19:57;;;;;;;15.00;8.23;;;11.80;99.90;;;;;;4997762;28;20036;-91
2022/10/20 10:22:23;;;;;;;10.75;7.03;;;11.80;99.90;;;;;;4998481;28;20085;-92
2022/10/20 10:24:50;;;;;;;12.25;7.45;;;11.80;99.90;;;;;;4998055;28;20101;-92
2022/10/20 10:27:35;;;;;;;15.23;8.10;;;11.80;99.90;;;;;;4998249;28;20040;-93
2022/10/20 10:30:22;;;;;;;14.25;8.00;;;11.80;99.90;;;;;;4999664;28;20042;-92
2022/10/20 10:32:48;;;;;;;12.63;7.38;;;11.90;99.90;;;;;;5000728;28;20042;-93
2022/10/20 10:35:28;;;;;;;14.95;8.35;;;11.90;99.90;;;;;;5004690;28;20060;-93
2022/10/20 10:37:54;;;;;;;53.58;29.80;;;11.90;99.90;;;;;;5000667;28;20046;-93
2022/10/20 10:40:44;;;;;;;13.38;8.27;;;11.90;99.90;;;;;;5004722;28;20048;-94
2022/10/20 10:43:35;;;;;;;11.15;7.40;;;11.90;99.90;;;;;;5005091;28;20025;-93
2022/10/20 10:46:18;;;;;;;12.82;7.45;;;11.90;99.90;;;;;;5002909;28;20049;-91
2022/10/20 10:49:03;;;;;;;30.85;16.55;;;11.90;99.90;;;;;;4985962;28;20039;-92
2022/10/20 10:51:47;;;;;;;9.77;5.78;;;11.90;99.90;;;;;;4983973;28;20026;-94
2022/10/20 10:54:24;;;;;;;15.55;6.88;;;11.90;99.90;;;;;;4979399;28;20035;-93
2022/10/20 10:56:55;;;;;;;17.20;6.75;;;11.90;99.90;;;;;;4982956;28;20108;-93
2022/10/20 10:59:26;;;;;;;17.52;8.23;;;11.90;99.90;;;;;;4981079;28;20030;-94
2022/10/20 11:02:16;;;;;;;36.95;12.13;;;11.90;99.90;;;;;;4981870;28;20112;-93
2022/10/20 11:05:04;;;;;;;45.55;13.88;;;11.90;99.90;;;;;;4999415;28;20093;-92
2022/10/20 11:07:29;;;;;;;29.88;10.88;;;11.90;99.90;;;;;;5000243;28;20014;-93
2022/10/20 11:10:01;;;;;;;17.30;8.48;;;11.90;99.90;;;;;;4999640;28;20031;-92
2022/10/20 11:13:02;;;;;;;14.75;6.95;;;11.90;99.90;;;;;;4982935;28;20017;-91
2022/10/20 11:15:46;;;;;;;14.02;5.85;;;11.90;99.90;;;;;;4997889;28;20036;-92
2022/10/20 11:18:42;;;;;;;9.00;5.57;;;11.90;99.90;;;;;;4995893;28;20030;-92
2022/10/20 11:21:23;;;;;;;11.82;5.65;;;11.90;99.90;;;;;;4977753;28;20073;-93
2022/10/20 11:24:35;;;;;;;10.70;5.65;;;11.90;99.90;;;;;;4978755;28;20026;-92
2022/10/20 11:27:10;;;;;;;12.80;5.68;;;11.90;99.90;;;;;;4967314;28;20038;-93
2022/10/20 11:29:41;;;;;;;8.50;4.38;;;12.00;99.90;;;;;;4977352;28;20483;-93
2022/10/20 11:32:13;;;;;;;12.10;6.18;;;12.00;99.90;;;;;;4977540;28;20034;-93
2022/10/20 11:35:00;;;;;;;9.30;5.35;;;12.00;99.90;;;;;;4977611;28;20137;-92
2022/10/20 11:37:51;;;;;;;10.80;6.80;;;11.90;99.90;;;;;;4994861;28;20031;-93
2022/10/20 11:40:24;;;;;;;10.95;6.78;;;12.00;99.90;;;;;;4993496;28;20145;-93
2022/10/20 11:43:05;;;;;;;22.55;12.77;;;12.00;99.90;;;;;;4977953;28;20069;-93
2022/10/20 11:45:57;;;;;;;17.17;9.95;;;12.00;99.90;;;;;;4979444;28;20125;-93
2022/10/20 11:48:29;;;;;;;16.70;9.18;;;12.00;99.90;;;;;;4996398;28;20093;-93
2022/10/20 11:51:29;;;;;;;16.85;8.18;;;12.10;99.90;;;;;;4996260;28;20030;-93
2022/10/20 11:54:31;;;;;;;13.88;7.72;;;12.10;99.90;;;;;;4953965;28;20053;-92
2022/10/20 11:57:43;;;;;;;6.07;4.97;;;12.10;99.90;;;;;;4994281;28;20022;-93
2022/10/20 12:00:49;;;;;;;11.15;7.13;;;12.10;99.90;;;;;;4925872;29;20028;-94
2022/10/20 12:03:44;;;;;;;20.05;13.25;;;12.10;99.90;;;;;;4899902;29;20032;-93
2022/10/20 12:06:10;;;;;;;7.75;5.05;;;12.10;99.90;;;;;;4883651;29;20075;-94
2022/10/20 12:08:36;;;;;;;7.45;4.72;;;12.10;99.90;;;;;;4883621;29;20517;-91
2022/10/20 12:11:36;;;;;;;18.70;10.43;;;12.10;99.90;;;;;;4898299;29;20032;-93
2022/10/20 12:14:07;;;;;;;4.88;3.60;;;12.10;99.90;;;;;;4866814;29;20147;-94
2022/10/20 12:16:53;;;;;;;9.68;4.35;;;12.10;99.90;;;;;;4885537;29;20104;-93
2022/10/20 12:19:26;;;;;;;12.68;3.85;;;12.10;99.90;;;;;;4896486;29;20144;-93
2022/10/20 12:22:02;;;;;;;4.28;3.00;;;12.10;99.90;;;;;;4892692;29;20045;-93
2022/10/20 12:24:39;;;;;;;5.68;3.40;;;12.10;99.90;;;;;;4891233;29;20033;-94
2022/10/20 12:27:08;;;;;;;7.45;2.85;;;12.20;99.90;;;;;;4890681;29;20047;-93
2022/10/20 12:29:33;;;;;;;4.18;2.65;;;12.20;99.90;;;;;;4906476;29;20360;-91
2022/10/20 12:32:22;;;;;;;3.97;2.40;;;12.20;99.90;;;;;;4902917;29;20040;-92
2022/10/20 12:35:18;;;;;;;3.05;2.13;;;12.20;99.90;;;;;;4918676;29;20040;-93
2022/10/20 12:37:55;;;;;;;7.88;2.70;;;12.20;99.90;;;;;;4900587;29;20529;-91
2022/10/20 12:40:27;;;;;;;3.08;2.58;;;12.20;99.90;;;;;;4947410;28;20070;-92
2022/10/20 12:42:54;;;;;;;6.60;3.42;;;12.20;99.90;;;;;;4979833;28;20042;-92
2022/10/20 12:45:39;;;;;;;4.10;2.35;;;12.20;99.90;;;;;;4962306;28;20038;-91
2022/10/20 12:48:08;;;;;;;3.58;2.60;;;12.20;99.90;;;;;;4963437;28;20392;-91
2022/10/20 12:50:45;;;;;;;4.05;2.38;;;12.20;99.90;;;;;;4979245;28;20037;-92
2022/10/20 12:53:22;;;;;;;5.18;2.50;;;12.20;99.90;;;;;;4964515;28;20110;-92
2022/10/20 12:56:02;;;;;;;4.97;3.05;;;12.20;99.90;;;;;;4962947;28;20082;-92